Time;durP1;ratioP1;P1;durP2;ratioP2;P2;SDS_P1;SDS_P2;PMS_P1;PMS_P2;Temp;Humidity;BMP_temperature;BMP_pressure;BME280_temperature;BME280_humidity;BME280_pressure;Samples;Min_cycle;Max_cycle;Signal;HPM_P1;HPM_P2
2022/08/26 00:01:42;;;;;;;0.57;0.55;;;;;;;14.78;100.00;100239.59;7394528;19;20014;-61
2022/08/26 00:04:09;;;;;;;0.40;0.40;;;;;;;14.84;100.00;100232.78;7390162;19;20633;-61
2022/08/26 00:06:35;;;;;;;0.38;0.38;;;;;;;14.86;100.00;100240.69;7393605;19;20010;-61
2022/08/26 00:09:02;;;;;;;0.10;0.10;;;;;;;14.83;100.00;100239.69;7394087;19;20010;-61
2022/08/26 00:11:29;;;;;;;0.10;0.10;;;;;;;14.77;100.00;100241.63;7390295;19;20011;-61
2022/08/26 00:13:56;;;;;;;0.47;0.47;;;;;;;14.75;100.00;100235.75;7388080;19;20374;-61
2022/08/26 00:16:24;;;;;;;0.40;0.40;;;;;;;14.60;100.00;100229.50;7390357;19;20014;-61
2022/08/26 00:18:51;;;;;;;5.75;1.65;;;;;;;14.58;100.00;100229.22;7388949;19;20014;-61
2022/08/26 00:21:18;;;;;;;1.45;0.63;;;;;;;14.61;100.00;100228.25;7388065;19;20007;-61
2022/08/26 00:23:45;;;;;;;2.13;0.55;;;;;;;14.55;100.00;100241.44;7394425;19;20080;-61
2022/08/26 00:26:12;;;;;;;1.17;0.28;;;;;;;14.32;100.00;100243.19;7392120;19;20019;-61
2022/08/26 00:28:38;;;;;;;0.35;0.35;;;;;;;14.30;100.00;100242.16;7392238;19;20042;-61
2022/08/26 00:31:05;;;;;;;0.20;0.20;;;;;;;14.33;100.00;100238.38;7389875;19;20486;-61
2022/08/26 00:33:32;;;;;;;0.30;0.20;;;;;;;14.46;100.00;100243.59;7388736;19;20022;-61
2022/08/26 00:35:58;;;;;;;1.65;0.57;;;;;;;14.39;100.00;100239.97;7390438;19;20003;-61
2022/08/26 00:38:24;;;;;;;0.40;0.40;;;;;;;14.40;100.00;100249.91;7388800;19;20018;-61
2022/08/26 00:40:54;;;;;;;1.75;0.90;;;;;;;14.45;100.00;100240.03;7388755;19;20007;-61
2022/08/26 00:43:21;;;;;;;0.80;0.57;;;;;;;14.38;100.00;100238.44;7388934;19;20018;-61
2022/08/26 00:46:18;;;;;;;0.17;0.17;;;;;;;14.36;100.00;100251.38;7390285;19;20021;-61
2022/08/26 00:48:47;;;;;;;1.13;0.75;;;;;;;14.26;100.00;100244.38;7389151;19;20010;-61
2022/08/26 00:51:26;;;;;;;0.95;0.43;;;;;;;14.24;100.00;100246.88;7388337;19;20078;-61
2022/08/26 00:54:02;;;;;;;3.60;1.00;;;;;;;14.23;100.00;100250.94;7389165;19;20095;-61
2022/08/26 00:56:40;;;;;;;0.57;0.55;;;;;;;14.14;100.00;100248.31;7388327;19;20010;-60
2022/08/26 00:59:10;;;;;;;0.20;0.20;;;;;;;14.08;100.00;100253.03;7391602;19;20014;-61
2022/08/26 01:01:40;;;;;;;1.05;0.43;;;;;;;14.18;100.00;100248.88;7389024;19;20752;-60
2022/08/26 01:04:08;;;;;;;1.30;0.77;;;;;;;14.17;100.00;100248.09;7389501;19;20343;-60
2022/08/26 01:06:34;;;;;;;1.58;0.40;;;;;;;14.21;100.00;100254.25;7391276;19;20010;-61
2022/08/26 01:09:00;;;;;;;5.93;0.85;;;;;;;14.19;100.00;100250.38;7387542;19;20011;-61
2022/08/26 01:11:27;;;;;;;0.30;0.30;;;;;;;14.12;100.00;100248.03;7390449;19;20010;-60
2022/08/26 01:13:56;;;;;;;0.13;0.10;;;;;;;14.13;100.00;100249.56;7388580;19;20014;-60
2022/08/26 01:16:24;;;;;;;0.47;0.40;;;;;;;14.08;100.00;100250.25;7387926;19;20074;-60
2022/08/26 01:18:53;;;;;;;0.63;0.20;;;;;;;14.06;100.00;100242.34;7392324;19;20010;-60
2022/08/26 01:21:33;;;;;;;0.30;0.30;;;;;;;13.99;100.00;100250.41;7387951;19;20021;-60
2022/08/26 01:23:59;;;;;;;0.80;0.55;;;;;;;13.92;100.00;100248.78;7388606;19;20017;-60
2022/08/26 01:26:33;;;;;;;1.55;0.35;;;;;;;13.87;100.00;100249.47;7391244;19;20006;-60
2022/08/26 01:29:03;;;;;;;2.20;0.28;;;;;;;13.83;100.00;100257.31;7387456;19;20021;-60
2022/08/26 01:31:38;;;;;;;0.73;0.73;;;;;;;13.84;100.00;100253.25;7388274;19;20030;-60
2022/08/26 01:34:09;;;;;;;0.20;0.20;;;;;;;13.81;100.00;100259.84;7396904;19;20014;-60
2022/08/26 01:36:37;;;;;;;1.02;0.25;;;;;;;13.81;100.00;100261.84;7397119;19;20014;-60
2022/08/26 01:39:05;;;;;;;0.35;0.35;;;;;;;13.87;100.00;100268.28;7395521;19;20030;-60
2022/08/26 01:41:32;;;;;;;9.88;0.70;;;;;;;13.87;100.00;100268.28;7394410;19;20012;-60
2022/08/26 01:43:59;;;;;;;0.90;0.43;;;;;;;13.89;100.00;100266.56;7398587;19;20034;-60
2022/08/26 01:46:27;;;;;;;1.10;0.50;;;;;;;13.97;100.00;100272.53;7396935;19;20011;-60
2022/08/26 01:48:57;;;;;;;0.32;0.32;;;;;;;13.93;100.00;100271.94;7394522;19;20106;-60
2022/08/26 01:51:26;;;;;;;0.65;0.47;;;;;;;13.94;100.00;100273.50;7394090;19;20011;-60
2022/08/26 01:53:53;;;;;;;0.38;0.30;;;;;;;13.88;100.00;100287.41;7393853;19;20015;-60
2022/08/26 01:56:22;;;;;;;0.30;0.30;;;;;;;13.87;100.00;100290.69;7394902;19;20023;-60
2022/08/26 01:58:54;;;;;;;1.20;0.47;;;;;;;13.88;100.00;100283.84;7395250;19;20006;-60
2022/08/26 02:01:22;;;;;;;0.20;0.20;;;;;;;13.83;100.00;100274.13;7394311;19;21137;-61
2022/08/26 02:04:24;;;;;;;0.30;0.22;;;;;;;13.76;100.00;100273.72;7394116;19;20074;-60
2022/08/26 02:06:51;;;;;;;0.10;0.10;;;;;;;13.69;100.00;100281.28;7392296;19;20011;-60
2022/08/26 02:09:19;;;;;;;0.30;0.30;;;;;;;13.66;100.00;100270.31;7393187;19;20643;-60
2022/08/26 02:11:46;;;;;;;0.28;0.28;;;;;;;13.73;100.00;100274.72;7394958;19;20002;-60
2022/08/26 02:14:15;;;;;;;0.40;0.38;;;;;;;13.75;100.00;100272.22;7393915;19;21051;-60
2022/08/26 02:16:45;;;;;;;1.27;0.65;;;;;;;13.71;100.00;100278.00;7395435;19;20422;-60
2022/08/26 02:19:18;;;;;;;0.55;0.40;;;;;;;13.78;100.00;100277.59;7392368;19;20011;-60
2022/08/26 02:21:47;;;;;;;0.10;0.10;;;;;;;13.82;100.00;100277.41;7393897;19;20007;-60
2022/08/26 02:24:17;;;;;;;0.15;0.15;;;;;;;13.68;100.00;100268.56;7396033;19;20517;-60
2022/08/26 02:26:45;;;;;;;0.10;0.10;;;;;;;13.85;100.00;100270.81;7397341;19;20015;-60
2022/08/26 02:29:36;;;;;;;1.05;0.40;;;;;;;14.03;100.00;100271.34;7397304;19;20010;-60
2022/08/26 02:32:06;;;;;;;0.85;0.50;;;;;;;14.11;100.00;100274.47;7392787;19;20045;-60
2022/08/26 02:34:33;;;;;;;0.85;0.77;;;;;;;14.27;100.00;100271.88;7393446;19;20045;-60
2022/08/26 02:37:03;;;;;;;8.18;0.95;;;;;;;14.38;100.00;100277.66;7397889;19;20015;-60
2022/08/26 02:39:30;;;;;;;0.70;0.45;;;;;;;14.43;100.00;100264.97;7393312;19;20017;-60
2022/08/26 02:41:57;;;;;;;0.10;0.10;;;;;;;14.49;100.00;100268.59;7393126;19;20014;-61
2022/08/26 02:44:24;;;;;;;0.30;0.30;;;;;;;14.49;100.00;100251.78;7389879;19;20409;-60
2022/08/26 02:46:51;;;;;;;1.30;0.30;;;;;;;14.59;100.00;100258.03;7396406;19;20076;-60
2022/08/26 02:49:18;;;;;;;1.40;0.43;;;;;;;14.61;100.00;100267.47;7392839;19;20015;-61
2022/08/26 02:51:45;;;;;;;0.65;0.20;;;;;;;14.58;100.00;100273.28;7392949;19;20010;-60
2022/08/26 02:54:12;;;;;;;0.52;0.30;;;;;;;14.60;100.00;100265.94;7392868;19;20299;-60
2022/08/26 02:56:38;;;;;;;0.30;0.30;;;;;;;14.71;100.00;100271.66;7395280;19;20475;-60
2022/08/26 02:59:05;;;;;;;0.10;0.10;;;;;;;14.66;100.00;100266.00;7395571;19;20579;-60
2022/08/26 03:01:32;;;;;;;0.13;0.13;;;;;;;14.65;100.00;100265.22;7391619;19;20050;-60
2022/08/26 03:04:01;;;;;;;1.48;0.43;;;;;;;14.67;100.00;100268.31;7391994;19;20007;-61
2022/08/26 03:06:28;;;;;;;0.20;0.20;;;;;;;14.72;100.00;100264.78;7395633;19;20017;-61
2022/08/26 03:08:54;;;;;;;0.20;0.17;;;;;;;14.73;100.00;100260.72;7398374;19;20439;-60
2022/08/26 03:11:22;;;;;;;1.40;0.30;;;;;;;14.71;100.00;100274.47;7398760;19;20014;-60
2022/08/26 03:13:49;;;;;;;0.20;0.20;;;;;;;14.57;100.00;100269.72;7391692;19;20007;-60
2022/08/26 03:16:16;;;;;;;0.47;0.47;;;;;;;14.54;100.00;100259.50;7393046;19;20015;-61
2022/08/26 03:18:42;;;;;;;0.60;0.40;;;;;;;14.66;100.00;100258.34;7391323;19;20021;-60
2022/08/26 03:21:11;;;;;;;1.10;0.70;;;;;;;14.80;100.00;100263.09;7390966;19;20047;-60
2022/08/26 03:23:38;;;;;;;0.30;0.20;;;;;;;14.92;100.00;100250.69;7389424;19;20043;-61
2022/08/26 03:26:05;;;;;;;1.33;0.35;;;;;;;15.01;100.00;100249.75;7393725;19;20478;-61
2022/08/26 03:28:32;;;;;;;0.40;0.40;;;;;;;15.08;100.00;100252.91;7393397;19;20037;-60
2022/08/26 03:30:58;;;;;;;19.95;0.60;;;;;;;15.14;100.00;100252.94;7394057;19;20035;-60
2022/08/26 03:33:25;;;;;;;0.30;0.30;;;;;;;15.09;100.00;100248.81;7391459;19;20020;-61
2022/08/26 03:35:52;;;;;;;0.15;0.15;;;;;;;15.10;100.00;100243.97;7392504;19;20114;-60
2022/08/26 03:38:21;;;;;;;10.23;0.88;;;;;;;15.10;100.00;100250.38;7391182;19;20014;-60
2022/08/26 03:40:47;;;;;;;0.17;0.17;;;;;;;15.11;100.00;100243.50;7390451;19;20014;-60
2022/08/26 03:43:15;;;;;;;0.80;0.47;;;;;;;15.09;100.00;100246.00;7389514;19;20007;-61
2022/08/26 03:45:42;;;;;;;0.40;0.40;;;;;;;15.22;100.00;100240.00;7392768;19;20078;-60
2022/08/26 03:48:09;;;;;;;0.40;0.20;;;;;;;15.16;100.00;100237.16;7390904;19;20014;-61
2022/08/26 03:50:35;;;;;;;0.30;0.30;;;;;;;15.18;100.00;100234.63;7390505;19;20022;-60
2022/08/26 03:53:02;;;;;;;0.63;0.40;;;;;;;15.19;100.00;100230.56;7390530;19;20066;-60
2022/08/26 03:55:33;;;;;;;0.20;0.20;;;;;;;15.04;100.00;100229.91;7389716;19;20014;-60
2022/08/26 03:57:59;;;;;;;1.05;0.57;;;;;;;14.99;100.00;100236.25;7391587;19;20038;-60
2022/08/26 04:00:26;;;;;;;0.95;0.32;;;;;;;14.80;100.00;100235.03;7389984;19;20014;-60
2022/08/26 04:02:52;;;;;;;0.30;0.30;;;;;;;14.72;100.00;100242.38;7395170;19;20010;-60
2022/08/26 04:05:20;;;;;;;0.40;0.30;;;;;;;14.60;100.00;100231.50;7391291;19;20103;-61
2022/08/26 04:07:47;;;;;;;0.75;0.30;;;;;;;14.50;100.00;100233.72;7390258;19;20014;-60
2022/08/26 04:10:16;;;;;;;0.30;0.30;;;;;;;14.82;100.00;100229.72;7390909;19;20020;-60
2022/08/26 04:12:43;;;;;;;0.32;0.32;;;;;;;14.96;100.00;100231.63;7390844;19;20458;-60
2022/08/26 04:15:12;;;;;;;1.05;1.05;;;;;;;15.10;100.00;100222.31;7393802;19;19999;-60
2022/08/26 04:17:39;;;;;;;0.40;0.32;;;;;;;15.08;100.00;100224.84;7389056;19;20010;-60
2022/08/26 04:20:07;;;;;;;0.65;0.30;;;;;;;15.12;100.00;100228.19;7389597;19;20017;-61
2022/08/26 04:22:33;;;;;;;6.72;0.55;;;;;;;15.12;100.00;100225.38;7389511;19;20066;-60
2022/08/26 04:25:00;;;;;;;0.20;0.20;;;;;;;15.10;100.00;100216.69;7389566;19;20050;-61
2022/08/26 04:27:26;;;;;;;0.20;0.15;;;;;;;15.06;100.00;100230.19;7389356;19;20010;-62
2022/08/26 04:29:52;;;;;;;0.40;0.40;;;;;;;15.23;100.00;100221.91;7389136;19;20486;-60
2022/08/26 04:32:18;;;;;;;0.15;0.15;;;;;;;15.48;100.00;100217.53;7389554;19;20712;-60
2022/08/26 04:34:44;;;;;;;0.73;0.60;;;;;;;15.53;100.00;100223.16;7389022;19;20010;-61
2022/08/26 04:37:10;;;;;;;1.27;0.30;;;;;;;15.66;100.00;100228.34;7391703;19;20034;-61
2022/08/26 04:39:37;;;;;;;1.40;0.45;;;;;;;15.75;100.00;100225.31;7389037;19;20519;-61
2022/08/26 04:42:04;;;;;;;2.40;0.60;;;;;;;15.80;100.00;100221.78;7391010;19;20015;-60
2022/08/26 04:44:34;;;;;;;0.30;0.30;;;;;;;15.77;100.00;100214.34;7392006;19;20011;-60
2022/08/26 04:47:00;;;;;;;0.22;0.20;;;;;;;15.79;100.00;100209.00;7393477;19;20011;-61
2022/08/26 04:49:26;;;;;;;0.95;0.40;;;;;;;15.81;100.00;100218.47;7389485;19;20066;-60
2022/08/26 04:51:53;;;;;;;0.13;0.10;;;;;;;15.85;100.00;100216.19;7388943;19;20010;-60
2022/08/26 04:54:19;;;;;;;0.52;0.40;;;;;;;15.43;100.00;100221.00;7389396;19;20011;-60
2022/08/26 04:56:48;;;;;;;0.25;0.25;;;;;;;15.67;100.00;100213.03;7389734;19;20070;-60
2022/08/26 04:59:16;;;;;;;0.50;0.32;;;;;;;15.69;100.00;100210.50;7392633;19;20010;-61
2022/08/26 05:01:48;;;;;;;0.80;0.43;;;;;;;15.65;100.00;100210.75;7389774;19;20018;-61
2022/08/26 05:04:16;;;;;;;0.32;0.22;;;;;;;15.64;100.00;100208.41;7393647;19;20017;-61
2022/08/26 05:06:42;;;;;;;3.80;0.70;;;;;;;15.66;100.00;100209.44;7392626;19;20015;-61
2022/08/26 05:09:12;;;;;;;3.00;0.60;;;;;;;15.74;100.00;100215.38;7399752;19;20033;-61
2022/08/26 05:11:38;;;;;;;0.10;0.10;;;;;;;15.78;100.00;100218.72;7397913;19;20010;-61
2022/08/26 05:14:04;;;;;;;0.57;0.30;;;;;;;15.83;100.00;100218.00;7395334;19;20021;-60
2022/08/26 05:16:31;;;;;;;2.13;0.68;;;;;;;15.84;100.00;100216.69;7394450;19;20034;-61
2022/08/26 05:18:57;;;;;;;0.57;0.57;;;;;;;15.82;100.00;100219.25;7394074;19;20466;-60
2022/08/26 05:21:26;;;;;;;0.20;0.20;;;;;;;15.82;100.00;100211.59;7395074;19;20017;-60
2022/08/26 05:23:53;;;;;;;17.33;0.85;;;;;;;15.79;100.00;100214.63;7394678;19;20014;-61
2022/08/26 05:26:22;;;;;;;0.40;0.22;;;;;;;15.87;100.00;100215.72;7398403;19;20014;-61
2022/08/26 05:28:49;;;;;;;0.17;0.17;;;;;;;15.89;100.00;100218.78;7398345;19;20363;-60
2022/08/26 05:31:25;;;;;;;0.30;0.20;;;;;;;15.88;100.00;100212.38;7391806;19;20364;-60
2022/08/26 05:33:52;;;;;;;0.50;0.50;;;;;;;15.81;100.00;100212.06;7392307;19;20009;-60
2022/08/26 05:36:21;;;;;;;0.30;0.10;;;;;;;15.84;100.00;100217.47;7395771;19;20347;-60
2022/08/26 05:38:48;;;;;;;3.60;0.52;;;;;;;15.89;100.00;100218.78;7395817;19;20493;-60
2022/08/26 05:41:27;;;;;;;0.80;0.43;;;;;;;15.93;100.00;100208.84;7396629;19;20022;-60
2022/08/26 05:43:58;;;;;;;0.15;0.15;;;;;;;16.05;100.00;100220.13;7397298;19;20341;-61
2022/08/26 05:46:25;;;;;;;0.10;0.10;;;;;;;16.06;100.00;100210.41;7398411;19;20014;-60
2022/08/26 05:48:56;;;;;;;0.95;0.50;;;;;;;16.14;100.00;100217.84;7396282;19;20010;-61
2022/08/26 05:51:23;;;;;;;1.08;0.52;;;;;;;16.26;100.00;100207.44;7397812;19;20015;-61
2022/08/26 05:53:50;;;;;;;0.65;0.20;;;;;;;16.34;100.00;100203.63;7395050;19;20011;-61
2022/08/26 05:56:18;;;;;;;1.50;0.30;;;;;;;16.47;100.00;100217.19;7395980;19;20018;-60
2022/08/26 05:58:45;;;;;;;2.05;0.82;;;;;;;16.52;100.00;100225.66;7397504;19;20014;-61
2022/08/26 06:01:18;;;;;;;0.22;0.20;;;;;;;16.53;100.00;100221.59;7394868;19;20623;-61
2022/08/26 06:03:46;;;;;;;1.67;0.45;;;;;;;16.54;100.00;100228.75;7395536;19;20518;-61
2022/08/26 06:06:17;;;;;;;0.30;0.30;;;;;;;16.57;100.00;100224.13;7397998;19;20464;-60
2022/08/26 06:08:44;;;;;;;4.05;1.10;;;;;;;16.60;100.00;100218.28;7393363;19;20022;-61
2022/08/26 06:11:13;;;;;;;1.20;0.68;;;;;;;16.58;100.00;100223.66;7395606;19;20022;-61
2022/08/26 06:13:40;;;;;;;0.38;0.35;;;;;;;16.56;100.00;100229.03;7393889;19;20018;-61
2022/08/26 06:16:09;;;;;;;0.40;0.30;;;;;;;16.58;100.00;100234.91;7395092;19;20070;-61
2022/08/26 06:18:38;;;;;;;0.90;0.60;;;;;;;16.62;100.00;100224.16;7393612;19;20022;-61
2022/08/26 06:21:15;;;;;;;1.30;0.32;;;;;;;16.71;100.00;100230.81;7394590;19;20015;-61
2022/08/26 06:26:28;;;;;;;1.20;0.45;;;;;;;17.12;100.00;100220.63;7395590;19;20035;-61
2022/08/26 06:28:54;;;;;;;0.55;0.50;;;;;;;17.28;100.00;100225.50;7398609;19;20006;-61
2022/08/26 06:31:21;;;;;;;0.57;0.50;;;;;;;17.39;100.00;100229.06;7397313;19;20522;-61
2022/08/26 06:33:48;;;;;;;0.95;0.50;;;;;;;17.51;100.00;100224.22;7396287;19;20086;-61
2022/08/26 06:36:18;;;;;;;0.82;0.70;;;;;;;17.57;100.00;100224.19;7393606;19;20489;-61
2022/08/26 06:38:46;;;;;;;1.52;0.80;;;;;;;17.56;100.00;100236.75;7392709;19;20324;-61
2022/08/26 06:41:13;;;;;;;2.33;1.13;;;;;;;17.67;100.00;100242.38;7393948;19;20048;-61
2022/08/26 06:43:39;;;;;;;0.40;0.20;;;;;;;17.75;100.00;100234.91;7392040;19;20018;-61
2022/08/26 06:46:08;;;;;;;0.32;0.30;;;;;;;17.73;100.00;100235.44;7395225;19;20024;-61
2022/08/26 06:48:35;;;;;;;2.33;0.52;;;;;;;17.77;100.00;100238.75;7393106;19;20066;-61
2022/08/26 06:51:20;;;;;;;1.52;0.65;;;;;;;17.80;100.00;100237.72;7393074;19;20021;-61
2022/08/26 06:53:49;;;;;;;1.95;0.35;;;;;;;17.83;100.00;100239.50;7397797;19;20022;-61
2022/08/26 06:56:23;;;;;;;1.95;0.28;;;;;;;17.94;100.00;100233.84;7394083;19;20027;-61
2022/08/26 06:58:50;;;;;;;3.70;0.98;;;;;;;17.96;100.00;100236.91;7395585;19;20035;-61
2022/08/26 07:01:28;;;;;;;0.77;0.77;;;;;;;18.16;100.00;100242.22;7392167;19;20346;-61
2022/08/26 07:03:59;;;;;;;2.72;0.80;;;;;;;18.23;100.00;100240.16;7397098;19;20029;-61
2022/08/26 07:06:27;;;;;;;0.15;0.10;;;;;;;18.24;100.00;100236.03;7395573;19;20014;-61
2022/08/26 07:09:00;;;;;;;0.75;0.25;;;;;;;18.24;100.00;100233.19;7392880;19;20006;-61
2022/08/26 07:11:26;;;;;;;0.85;0.65;;;;;;;17.71;100.00;100237.25;7396704;19;20021;-61
2022/08/26 07:13:53;;;;;;;0.98;0.60;;;;;;;17.50;100.00;100233.94;7393115;19;20021;-61
2022/08/26 07:16:19;;;;;;;0.10;0.10;;;;;;;17.44;100.00;100247.22;7394023;19;20017;-61
2022/08/26 07:18:47;;;;;;;1.08;0.63;;;;;;;16.13;100.00;100238.81;7389934;19;20011;-61
2022/08/26 07:21:16;;;;;;;0.20;0.20;;;;;;;17.18;100.00;100235.47;7391602;19;20014;-61
2022/08/26 07:23:44;;;;;;;2.90;0.40;;;;;;;18.17;100.00;100238.09;7391710;19;20043;-61
2022/08/26 07:26:15;;;;;;;6.38;0.68;;;;;;;18.49;100.00;100237.75;7394194;19;20034;-61
2022/08/26 07:28:45;;;;;;;0.47;0.38;;;;;;;18.64;100.00;100249.47;7392895;19;20033;-61
2022/08/26 07:31:14;;;;;;;0.80;0.40;;;;;;;18.80;100.00;100246.53;7389754;19;20432;-61
2022/08/26 07:33:41;;;;;;;3.70;0.60;;;;;;;18.84;100.00;100241.34;7391896;19;20020;-61
2022/08/26 07:36:09;;;;;;;6.43;1.27;;;;;;;18.96;100.00;100252.56;7392881;19;20010;-61
2022/08/26 07:38:36;;;;;;;1.65;0.38;;;;;;;19.09;100.00;100245.03;7389083;19;20011;-61
2022/08/26 07:41:02;;;;;;;8.23;0.95;;;;;;;18.98;100.00;100250.75;7390146;19;20014;-61
2022/08/26 07:43:29;;;;;;;2.38;0.30;;;;;;;19.01;100.00;100246.91;7390905;19;20037;-61
2022/08/26 07:45:56;;;;;;;8.95;0.73;;;;;;;19.06;100.00;100251.72;7394269;19;20015;-61
2022/08/26 07:48:23;;;;;;;0.43;0.22;;;;;;;18.90;100.00;100247.75;7390951;19;20044;-61
2022/08/26 07:50:49;;;;;;;5.70;2.00;;;;;;;18.81;100.00;100258.59;7390029;19;20491;-61
2022/08/26 07:53:16;;;;;;;6.85;1.52;;;;;;;18.73;100.00;100254.78;7390816;19;20014;-61
2022/08/26 07:55:42;;;;;;;2.75;1.52;;;;;;;18.73;100.00;100257.63;7391593;19;20035;-61
2022/08/26 07:58:08;;;;;;;8.40;1.73;;;;;;;18.70;100.00;100258.66;7392092;19;20018;-61
2022/08/26 08:00:35;;;;;;;4.03;1.52;;;;;;;18.76;100.00;100251.69;7391284;19;20014;-61
2022/08/26 08:03:03;;;;;;;1.45;0.65;;;;;;;18.58;100.00;100260.00;7393230;19;20026;-61
2022/08/26 08:05:31;;;;;;;1.98;0.57;;;;;;;18.50;100.00;100256.19;7397127;19;20014;-61
2022/08/26 08:07:58;;;;;;;1.45;1.08;;;;;;;18.39;100.00;100261.84;7399545;19;20443;-61
2022/08/26 08:10:27;;;;;;;1.65;0.73;;;;;;;18.37;100.00;100258.78;7393712;19;20382;-61
2022/08/26 08:12:54;;;;;;;8.40;1.65;;;;;;;18.49;100.00;100249.78;7394278;19;20015;-61
2022/08/26 08:15:25;;;;;;;5.75;1.10;;;;;;;18.66;100.00;100253.28;7391885;19;20013;-61
2022/08/26 08:17:51;;;;;;;5.30;1.83;;;;;;;18.86;100.00;100250.06;7390214;19;20017;-61
2022/08/26 08:20:18;;;;;;;1.25;0.57;;;;;;;19.00;100.00;100256.66;7389897;19;20074;-61
2022/08/26 08:22:44;;;;;;;5.03;1.10;;;;;;;19.19;100.00;100260.34;7389397;19;20108;-61
2022/08/26 08:25:11;;;;;;;10.55;1.35;;;;;;;19.32;100.00;100245.59;7390033;19;20010;-61
2022/08/26 08:27:39;;;;;;;0.88;0.82;;;;;;;19.38;100.00;100244.28;7389968;19;20018;-61
2022/08/26 08:30:07;;;;;;;0.38;0.38;;;;;;;19.54;100.00;100245.44;7394107;19;20031;-61
2022/08/26 08:32:37;;;;;;;1.40;0.20;;;;;;;19.61;100.00;100239.22;7388722;19;20456;-61
2022/08/26 08:35:05;;;;;;;0.40;0.30;;;;;;;19.64;100.00;100241.75;7388386;19;22238;-61
2022/08/26 08:37:31;;;;;;;2.33;0.50;;;;;;;19.83;100.00;100238.22;7389626;19;20375;-61
2022/08/26 08:39:58;;;;;;;2.25;0.70;;;;;;;20.07;100.00;100241.03;7389450;19;20070;-61
2022/08/26 08:42:49;;;;;;;4.18;1.00;;;;;;;20.19;100.00;100231.09;7396189;19;20380;-61
2022/08/26 08:45:18;;;;;;;;;;;;;;;20.34;100.00;100237.13;7397238;19;20030;-61
2022/08/26 08:47:52;;;;;;;0.15;0.15;;;;;;;20.45;100.00;100236.97;7396562;19;19919;-61
2022/08/26 08:50:37;;;;;;;1.13;0.40;;;;;;;20.40;100.00;100235.75;7397261;19;20011;-61
2022/08/26 08:53:22;;;;;;;2.28;0.45;;;;;;;20.57;100.00;100241.19;7395349;19;20032;-61
2022/08/26 08:56:10;;;;;;;0.63;0.43;;;;;;;20.69;100.00;100227.63;7395212;19;20006;-61
2022/08/26 08:58:56;;;;;;;1.15;0.28;;;;;;;20.19;100.00;100231.09;7398249;19;20010;-61
2022/08/26 09:01:47;;;;;;;0.10;0.10;;;;;;;20.18;100.00;100235.25;7397283;19;20007;-61
2022/08/26 09:04:35;;;;;;;0.20;0.20;;;;;;;20.38;100.00;100229.09;7399685;19;20036;-61
2022/08/26 09:07:05;;;;;;;6.07;0.32;;;;;;;20.47;100.00;100216.63;7400006;19;20024;-61
2022/08/26 09:09:49;;;;;;;0.15;0.15;;;;;;;19.72;100.00;100227.81;7393432;19;20022;-61
2022/08/26 09:12:21;;;;;;;1.00;0.20;;;;;;;20.71;100.00;100228.63;7399020;19;20015;-61
2022/08/26 09:14:48;;;;;;;0.57;0.08;;;;;;;21.14;100.00;100226.44;7397193;19;20044;-61
2022/08/26 09:17:22;;;;;;;0.10;0.00;;;;;;;21.08;100.00;100214.44;7400493;19;20367;-62
2022/08/26 09:19:53;;;;;;;1.52;0.43;;;;;;;20.77;100.00;100217.97;7395537;19;20038;-61
2022/08/26 09:22:34;;;;;;;0.17;0.10;;;;;;;20.99;100.00;100217.66;7396239;19;20007;-62
2022/08/26 09:25:03;;;;;;;2.97;0.30;;;;;;;21.20;100.00;100208.59;7395889;19;20028;-62
2022/08/26 09:27:42;;;;;;;0.20;0.10;;;;;;;21.23;100.00;100218.81;7399084;19;20070;-62
2022/08/26 09:30:12;;;;;;;0.20;0.20;;;;;;;21.58;100.00;100215.63;7394002;19;20058;-62
2022/08/26 09:32:38;;;;;;;0.10;0.00;;;;;;;21.51;100.00;100210.59;7393905;19;20015;-61
2022/08/26 09:35:10;;;;;;;1.73;0.10;;;;;;;21.81;100.00;100211.06;7395363;19;20015;-62
2022/08/26 09:37:46;;;;;;;0.65;0.28;;;;;;;22.08;100.00;100206.94;7395132;19;20006;-62
2022/08/26 09:40:29;;;;;;;2.17;0.20;;;;;;;22.33;100.00;100216.72;7394439;19;20043;-62
2022/08/26 09:43:14;;;;;;;0.10;0.10;;;;;;;22.55;100.00;100210.56;7393651;19;20070;-61
2022/08/26 09:45:48;;;;;;;1.10;0.40;;;;;;;22.95;100.00;100207.63;7396874;19;20034;-61
2022/08/26 09:48:25;;;;;;;0.52;0.22;;;;;;;23.05;100.00;100212.25;7394071;19;20343;-62
2022/08/26 09:51:21;;;;;;;0.73;0.20;;;;;;;23.19;100.00;100213.72;7399331;19;20014;-62
2022/08/26 09:53:54;;;;;;;0.10;0.03;;;;;;;23.31;100.00;100211.34;7396932;19;20014;-63
2022/08/26 09:56:20;;;;;;;2.47;0.30;;;;;;;23.55;100.00;100208.16;7395851;19;20437;-63
2022/08/26 09:58:47;;;;;;;2.08;0.28;;;;;;;23.59;100.00;100191.50;7396047;19;20029;-63
2022/08/26 10:01:32;;;;;;;1.55;0.40;;;;;;;23.69;100.00;100195.34;7398405;19;20407;-62
2022/08/26 10:04:22;;;;;;;2.35;0.35;;;;;;;23.57;100.00;100185.63;7394429;19;20014;-62
2022/08/26 10:07:02;;;;;;;0.73;0.10;;;;;;;23.71;100.00;100192.75;7395450;19;20014;-62
2022/08/26 10:09:34;;;;;;;0.17;0.17;;;;;;;23.79;100.00;100196.38;7393226;19;20010;-63
2022/08/26 10:12:12;;;;;;;0.10;0.05;;;;;;;23.82;100.00;100185.97;7396699;19;20007;-62
2022/08/26 10:14:46;;;;;;;0.45;0.10;;;;;;;23.92;100.00;100186.97;7396733;19;20011;-63
2022/08/26 10:17:25;;;;;;;0.25;0.10;;;;;;;23.82;100.00;100197.34;7391066;19;20010;-63
2022/08/26 10:20:05;;;;;;;2.15;0.20;;;;;;;23.98;100.00;100191.19;7393305;19;20014;-63
2022/08/26 10:22:53;;;;;;;0.30;0.10;;;;;;;23.89;100.00;100203.09;7393455;19;20022;-63
2022/08/26 10:25:25;;;;;;;0.00;0.00;;;;;;;23.79;100.00;100190.69;7393690;19;20247;-63
2022/08/26 10:28:10;;;;;;;0.55;0.10;;;;;;;23.83;100.00;100196.78;7392554;19;20014;-63
2022/08/26 10:30:44;;;;;;;2.05;0.20;;;;;;;23.87;100.00;100200.03;7392742;19;20046;-63
2022/08/26 10:33:14;;;;;;;0.70;0.22;;;;;;;24.21;100.00;100191.34;7393424;19;20010;-63
2022/08/26 10:35:51;;;;;;;5.30;1.33;;;;;;;24.49;100.00;100191.25;7394318;19;20007;-62
2022/08/26 10:38:28;;;;;;;4.60;0.38;;;;;;;24.56;100.00;100195.47;7394621;19;20014;-63
2022/08/26 10:41:12;;;;;;;3.05;0.30;;;;;;;24.72;100.00;100194.16;7395530;19;20010;-62
2022/08/26 10:43:44;;;;;;;0.30;0.10;;;;;;;24.53;100.00;100190.88;7392209;19;20090;-62
2022/08/26 10:46:18;;;;;;;0.20;0.10;;;;;;;24.48;100.00;100194.66;7393940;19;20015;-62
2022/08/26 10:48:51;;;;;;;3.20;0.50;;;;;;;24.49;100.00;100190.50;7393163;19;20011;-63
2022/08/26 10:51:24;;;;;;;2.28;0.38;;;;;;;24.53;100.00;100182.34;7393476;19;20018;-62
2022/08/26 10:54:12;;;;;;;0.10;0.03;;;;;;;24.76;100.00;100183.94;7392981;19;20011;-62
2022/08/26 10:56:51;;;;;;;0.82;0.22;;;;;;;24.94;100.00;100182.09;7394369;19;20034;-62
2022/08/26 10:59:27;;;;;;;0.10;0.00;;;;;;;25.02;100.00;100180.00;7393171;19;20029;-62
2022/08/26 11:02:07;;;;;;;3.38;0.10;;;;;;;24.91;100.00;100186.06;7395872;19;20244;-62
2022/08/26 11:04:45;;;;;;;0.45;0.20;;;;;;;24.42;100.00;100185.53;7389206;19;20010;-62
2022/08/26 11:07:38;;;;;;;0.40;0.10;;;;;;;23.98;100.00;100185.50;7397199;19;20018;-62
2022/08/26 11:10:06;;;;;;;0.45;0.00;;;;;;;24.07;100.00;100185.00;7393106;19;20011;-62
2022/08/26 11:12:36;;;;;;;0.32;0.32;;;;;;;24.32;100.00;100176.00;7397085;19;20074;-63
2022/08/26 11:15:04;;;;;;;9.10;0.40;;;;;;;24.57;100.00;100171.34;7391899;19;20027;-58
2022/08/26 11:17:45;;;;;;;0.30;0.10;;;;;;;24.82;98.17;100178.81;7392028;19;20356;-58
2022/08/26 11:20:38;;;;;;;2.85;0.20;;;;;;;24.95;96.04;100172.19;7391194;19;20014;-58
2022/08/26 11:23:19;;;;;;;0.30;0.08;;;;;;;24.95;94.94;100162.91;7392447;19;20007;-58
2022/08/26 11:25:54;;;;;;;3.90;0.10;;;;;;;24.73;97.63;100170.06;7394461;19;20011;-59
2022/08/26 11:28:59;;;;;;;0.52;0.30;;;;;;;24.58;100.00;100170.03;7393078;19;20030;-58
2022/08/26 11:31:25;;;;;;;1.70;0.30;;;;;;;24.63;100.00;100157.66;7387760;19;20369;-57
2022/08/26 11:34:05;;;;;;;0.17;0.00;;;;;;;24.68;100.00;100168.13;7387140;19;20019;-58
2022/08/26 11:36:37;;;;;;;2.63;0.20;;;;;;;24.77;96.73;100167.63;7388121;19;20051;-57